Time;durP1;ratioP1;P1;durP2;ratioP2;P2;SDS_P1;SDS_P2;PMS_P1;PMS_P2;Temp;Humidity;BMP_temperature;BMP_pressure;BME280_temperature;BME280_humidity;BME280_pressure;Samples;Min_cycle;Max_cycle;Signal;HPM_P1;HPM_P2
2022/04/28 00:01:47;;;;;;;16.30;6.40;;;;;;;;;;4955273;28;20083;-72
2022/04/28 00:04:12;;;;;;;23.55;7.10;;;;;;;;;;4952862;28;20024;-72
2022/04/28 00:06:38;;;;;;;25.60;7.47;;;;;;;;;;4955635;28;20456;-68
2022/04/28 00:09:05;;;;;;;22.25;7.45;;;;;;;;;;4955400;28;20023;-69
2022/04/28 00:11:31;;;;;;;19.98;6.93;;;;;;;;;;4955147;28;20039;-71
2022/04/28 00:13:58;;;;;;;18.48;6.13;;;;;;;;;;4955082;28;20082;-71
2022/04/28 00:16:24;;;;;;;15.77;6.53;;;;;;;;;;4955561;28;20074;-71
2022/04/28 00:18:50;;;;;;;22.88;6.80;;;;;;;;;;4954951;28;20110;-72
2022/04/28 00:21:16;;;;;;;21.88;7.10;;;;;;;;;;4960620;28;20138;-65
2022/04/28 00:23:42;;;;;;;30.00;7.95;;;;;;;;;;4972738;28;20035;-70
2022/04/28 00:26:08;;;;;;;20.90;7.35;;;;;;;;;;4974852;28;20031;-66
2022/04/28 00:28:33;;;;;;;28.98;9.07;;;;;;;;;;4974735;28;20023;-69
2022/04/28 00:30:59;;;;;;;26.27;8.25;;;;;;;;;;4989729;28;20507;-69
2022/04/28 00:33:27;;;;;;;23.38;7.18;;;;;;;;;;4988086;28;20026;-66
2022/04/28 00:35:54;;;;;;;25.02;7.72;;;;;;;;;;4962429;28;20039;-70
2022/04/28 00:38:20;;;;;;;21.20;7.15;;;;;;;;;;4960871;28;20023;-65
2022/04/28 00:40:46;;;;;;;28.83;8.30;;;;;;;;;;4954213;28;20035;-65
2022/04/28 00:43:23;;;;;;;22.45;7.18;;;;;;;;;;4954028;28;20031;-64
2022/04/28 00:45:50;;;;;;;23.58;7.35;;;;;;;;;;4955012;28;20035;-67
2022/04/28 00:51:04;;;;;;;28.67;7.60;;;;;;;;;;4955036;28;20094;-65
2022/04/28 00:53:32;;;;;;;22.60;7.13;;;;;;;;;;4952701;28;20042;-68
2022/04/28 00:55:59;;;;;;;16.48;6.90;;;;;;;;;;4954635;28;20042;-66
2022/04/28 00:58:26;;;;;;;25.88;7.68;;;;;;;;;;4954379;28;20085;-66
2022/04/28 01:00:53;;;;;;;21.02;6.80;;;;;;;;;;4954856;28;20035;-71
2022/04/28 01:03:20;;;;;;;19.85;6.80;;;;;;;;;;4954901;28;20130;-69
2022/04/28 01:05:46;;;;;;;20.52;7.55;;;;;;;;;;4954317;28;20114;-69
2022/04/28 01:08:12;;;;;;;20.58;7.00;;;;;;;;;;4952279;28;20182;-71
2022/04/28 01:10:38;;;;;;;22.30;7.30;;;;;;;;;;4953298;28;20050;-67
2022/04/28 01:13:04;;;;;;;20.25;6.40;;;;;;;;;;4953213;28;20043;-64
2022/04/28 01:15:42;;;;;;;18.85;6.35;;;;;;;;;;4953108;28;20035;-65
2022/04/28 01:18:08;;;;;;;20.73;6.72;;;;;;;;;;4953032;28;20057;-72
2022/04/28 01:20:35;;;;;;;18.35;7.10;;;;;;;;;;4954208;28;20050;-70
2022/04/28 01:23:03;;;;;;;18.88;6.70;;;;;;;;;;4954329;28;20489;-66
2022/04/28 01:25:29;;;;;;;20.98;7.15;;;;;;;;;;4969209;28;20039;-73
2022/04/28 01:27:56;;;;;;;13.82;6.45;;;;;;;;;;4953105;28;20032;-74
2022/04/28 01:30:22;;;;;;;17.98;5.30;;;;;;;;;;4952898;28;20043;-73
2022/04/28 01:32:52;;;;;;;16.33;6.05;;;;;;;;;;4953103;28;20050;-73
2022/04/28 01:35:18;;;;;;;20.45;6.75;;;;;;;;;;4954234;28;20055;-71
2022/04/28 01:37:45;;;;;;;15.32;6.50;;;;;;;;;;4966094;28;20362;-71
2022/04/28 01:40:14;;;;;;;15.10;6.05;;;;;;;;;;4952837;28;20035;-71
2022/04/28 01:42:42;;;;;;;13.45;5.40;;;;;;;;;;4952932;28;20055;-73
2022/04/28 01:45:09;;;;;;;17.50;6.43;;;;;;;;;;4952990;28;20066;-72
2022/04/28 01:47:46;;;;;;;18.95;6.10;;;;;;;;;;4952929;28;20122;-72
2022/04/28 01:50:31;;;;;;;14.50;5.78;;;;;;;;;;4954260;29;20445;-66
2022/04/28 01:56:18;;;;;;;21.58;5.82;;;;;;;;;;4958430;28;20127;-68
2022/04/28 01:59:10;;;;;;;13.98;5.28;;;;;;;;;;4952811;28;20039;-70
2022/04/28 02:01:56;;;;;;;19.75;6.05;;;;;;;;;;4971522;28;20047;-70
2022/04/28 02:04:22;;;;;;;26.90;6.60;;;;;;;;;;4952750;28;20054;-73
2022/04/28 02:06:50;;;;;;;29.20;6.05;;;;;;;;;;4952577;28;20027;-71
2022/04/28 02:09:17;;;;;;;16.38;5.88;;;;;;;;;;4951928;28;20036;-68
2022/04/28 02:11:43;;;;;;;22.95;5.30;;;;;;;;;;4950513;28;20095;-66
2022/04/28 02:14:29;;;;;;;19.02;5.47;;;;;;;;;;4952362;28;20047;-70
2022/04/28 02:17:24;;;;;;;21.20;6.13;;;;;;;;;;4954057;28;20516;-68
2022/04/28 02:19:50;;;;;;;22.02;6.13;;;;;;;;;;4953480;28;20454;-70
2022/04/28 02:22:16;;;;;;;23.88;6.93;;;;;;;;;;4952113;28;20035;-66
2022/04/28 02:24:42;;;;;;;18.90;5.80;;;;;;;;;;4951750;28;20106;-71
2022/04/28 02:27:09;;;;;;;16.20;5.25;;;;;;;;;;4951742;28;20347;-65
2022/04/28 02:29:35;;;;;;;30.88;8.07;;;;;;;;;;4952207;28;20040;-72
2022/04/28 02:32:01;;;;;;;24.17;6.97;;;;;;;;;;4954275;28;20110;-70
2022/04/28 02:34:27;;;;;;;21.50;6.75;;;;;;;;;;4953508;28;20420;-65
2022/04/28 02:36:53;;;;;;;13.80;5.80;;;;;;;;;;4948584;28;20121;-67
2022/04/28 02:39:20;;;;;;;16.92;5.28;;;;;;;;;;4952635;28;20039;-75
2022/04/28 02:41:50;;;;;;;19.58;5.43;;;;;;;;;;4951693;28;20034;-64
2022/04/28 02:44:16;;;;;;;18.88;5.38;;;;;;;;;;4951725;28;20043;-65
2022/04/28 02:46:42;;;;;;;23.85;6.28;;;;;;;;;;4951705;28;20118;-65
2022/04/28 02:49:12;;;;;;;16.48;5.30;;;;;;;;;;4949658;28;20394;-71
2022/04/28 02:51:38;;;;;;;17.83;6.13;;;;;;;;;;4967993;28;20057;-63
2022/04/28 02:54:05;;;;;;;26.85;7.00;;;;;;;;;;4952104;28;20047;-68
2022/04/28 02:56:35;;;;;;;27.85;8.05;;;;;;;;;;4952223;28;20059;-72
2022/04/28 02:59:03;;;;;;;25.98;6.93;;;;;;;;;;4967906;28;20420;-65
2022/04/28 03:01:29;;;;;;;23.83;7.07;;;;;;;;;;4951534;28;20134;-65
2022/04/28 03:03:55;;;;;;;25.63;6.63;;;;;;;;;;4953229;28;20110;-64
2022/04/28 03:11:53;;;;;;;17.13;5.47;;;;;;;;;;4953056;28;20090;-65
2022/04/28 03:14:19;;;;;;;21.05;5.20;;;;;;;;;;4968013;28;20109;-65
2022/04/28 03:16:46;;;;;;;19.48;5.82;;;;;;;;;;4953887;28;20122;-67
2022/04/28 03:19:12;;;;;;;16.88;4.95;;;;;;;;;;4955343;28;20122;-65
2022/04/28 03:21:38;;;;;;;14.32;5.15;;;;;;;;;;4956983;28;20552;-66
2022/04/28 03:24:07;;;;;;;16.90;6.03;;;;;;;;;;4955410;28;20019;-66
2022/04/28 03:26:33;;;;;;;25.85;6.85;;;;;;;;;;4955128;28;20073;-71
2022/04/28 03:29:00;;;;;;;28.25;7.15;;;;;;;;;;4955420;28;20390;-70
2022/04/28 03:31:26;;;;;;;29.40;6.03;;;;;;;;;;4956555;28;20035;-74
2022/04/28 03:34:15;;;;;;;21.60;6.80;;;;;;;;;;4955371;28;20091;-72
2022/04/28 03:36:51;;;;;;;23.85;6.15;;;;;;;;;;4955168;28;20423;-73
2022/04/28 03:39:20;;;;;;;15.88;5.68;;;;;;;;;;4953798;28;20043;-71
2022/04/28 03:41:46;;;;;;;25.38;6.32;;;;;;;;;;4953872;28;20142;-67
2022/04/28 03:44:12;;;;;;;19.95;6.70;;;;;;;;;;4954766;29;20035;-67
2022/04/28 03:46:39;;;;;;;13.70;5.30;;;;;;;;;;4955968;28;20042;-73
2022/04/28 03:49:05;;;;;;;14.95;5.07;;;;;;;;;;4970498;28;20413;-70
2022/04/28 03:51:31;;;;;;;34.85;8.73;;;;;;;;;;4955928;28;20019;-68
2022/04/28 03:54:00;;;;;;;29.02;6.80;;;;;;;;;;4954727;28;20534;-71
2022/04/28 03:56:31;;;;;;;26.08;6.90;;;;;;;;;;4954615;29;20114;-73
2022/04/28 03:59:02;;;;;;;18.35;6.03;;;;;;;;;;4970715;28;20043;-67
2022/04/28 04:01:31;;;;;;;15.73;5.95;;;;;;;;;;4970832;28;20041;-69
2022/04/28 04:04:06;;;;;;;20.52;6.45;;;;;;;;;;4970823;28;20019;-68
2022/04/28 04:06:36;;;;;;;23.90;5.43;;;;;;;;;;4954515;29;20035;-73
2022/04/28 04:09:24;;;;;;;19.95;5.50;;;;;;;;;;4954606;28;20054;-65
2022/04/28 04:11:51;;;;;;;24.75;7.05;;;;;;;;;;4954287;28;20452;-71
2022/04/28 04:14:18;;;;;;;27.42;6.60;;;;;;;;;;4954513;29;20031;-66
2022/04/28 04:16:44;;;;;;;28.98;8.05;;;;;;;;;;4954603;28;20046;-66
2022/04/28 04:19:14;;;;;;;31.95;7.35;;;;;;;;;;4955768;28;20090;-66
2022/04/28 04:21:49;;;;;;;28.42;6.22;;;;;;;;;;4954433;28;20098;-68
2022/04/28 04:24:15;;;;;;;23.95;6.25;;;;;;;;;;4954672;29;20067;-67
2022/04/28 04:26:42;;;;;;;27.50;6.30;;;;;;;;;;4979944;28;20042;-66
2022/04/28 04:29:12;;;;;;;23.23;6.32;;;;;;;;;;4954462;28;20585;-65
2022/04/28 04:34:50;;;;;;;17.23;6.72;;;;;;;;;;4954301;29;20041;-67
2022/04/28 04:37:21;;;;;;;19.55;5.88;;;;;;;;;;4953955;29;20394;-68
2022/04/28 04:39:51;;;;;;;15.98;6.63;;;;;;;;;;4953914;29;20039;-67
2022/04/28 04:42:17;;;;;;;18.48;6.10;;;;;;;;;;4953625;28;20034;-66
2022/04/28 04:44:43;;;;;;;22.02;6.22;;;;;;;;;;4953535;29;20027;-71
2022/04/28 04:47:13;;;;;;;23.42;5.60;;;;;;;;;;4953474;28;20042;-72
2022/04/28 04:49:58;;;;;;;32.00;7.93;;;;;;;;;;4955035;29;20083;-66
2022/04/28 04:52:38;;;;;;;21.70;6.63;;;;;;;;;;4939705;29;20106;-68
2022/04/28 04:55:07;;;;;;;18.05;5.85;;;;;;;;;;4953560;28;20062;-71
2022/04/28 04:57:37;;;;;;;17.13;5.70;;;;;;;;;;4969380;28;20030;-69
2022/04/28 05:00:05;;;;;;;23.83;7.05;;;;;;;;;;4952556;28;20494;-67
2022/04/28 05:02:42;;;;;;;29.00;7.30;;;;;;;;;;4954081;28;20043;-66
2022/04/28 05:05:46;;;;;;;;;;;;;;;;;;4932264;29;20062;-68
2022/04/28 05:08:20;;;;;;;17.60;6.50;;;;;;;;;;4934316;29;19974;-66
2022/04/28 05:11:01;;;;;;;37.50;8.13;;;;;;;;;;4939187;29;20565;-70
2022/04/28 05:13:27;;;;;;;22.88;7.07;;;;;;;;;;4953900;28;20376;-69
2022/04/28 05:15:55;;;;;;;21.60;7.25;;;;;;;;;;4954153;28;20032;-67
2022/04/28 05:18:42;;;;;;;18.67;6.82;;;;;;;;;;4953820;29;20035;-68
2022/04/28 05:21:28;;;;;;;22.08;7.60;;;;;;;;;;4955320;28;20122;-74
2022/04/28 05:24:12;;;;;;;15.30;6.55;;;;;;;;;;4953390;28;20055;-76
2022/04/28 05:26:44;;;;;;;27.42;7.13;;;;;;;;;;4953934;28;20043;-73
2022/04/28 05:29:43;;;;;;;25.27;8.00;;;;;;;;;;4963753;28;20584;-74
2022/04/28 05:32:27;;;;;;;22.83;7.55;;;;;;;;;;4954618;29;20089;-70
2022/04/28 05:34:58;;;;;;;18.60;7.43;;;;;;;;;;4953144;28;20478;-73
2022/04/28 05:37:24;;;;;;;22.42;7.45;;;;;;;;;;4952094;28;20125;-75
2022/04/28 05:39:50;;;;;;;22.63;7.32;;;;;;;;;;4954305;28;20501;-74
2022/04/28 05:42:19;;;;;;;14.90;6.15;;;;;;;;;;4968350;28;20046;-76
2022/04/28 05:47:29;;;;;;;18.63;6.85;;;;;;;;;;4968904;28;20035;-78
2022/04/28 05:49:55;;;;;;;24.90;7.72;;;;;;;;;;4965715;28;20038;-74
2022/04/28 05:52:22;;;;;;;23.65;7.70;;;;;;;;;;4943933;28;20043;-70
2022/04/28 05:54:50;;;;;;;25.48;7.88;;;;;;;;;;4968802;28;20027;-71
2022/04/28 05:57:16;;;;;;;23.73;7.78;;;;;;;;;;4971975;28;20039;-74
2022/04/28 05:59:42;;;;;;;16.70;7.40;;;;;;;;;;4958946;28;20458;-78
2022/04/28 06:02:35;;;;;;;23.27;8.73;;;;;;;;;;4954481;28;20054;-69
2022/04/28 06:05:04;;;;;;;30.92;11.40;;;;;;;;;;4953552;28;20031;-76
2022/04/28 06:07:30;;;;;;;19.17;8.45;;;;;;;;;;4953028;28;20026;-68
2022/04/28 06:09:57;;;;;;;23.83;8.07;;;;;;;;;;4951944;28;20058;-70
2022/04/28 06:12:27;;;;;;;27.58;8.35;;;;;;;;;;4952889;28;20394;-70
2022/04/28 06:15:12;;;;;;;19.55;8.80;;;;;;;;;;4953935;28;20043;-70
2022/04/28 06:17:58;;;;;;;26.05;8.73;;;;;;;;;;4954311;28;20486;-69
2022/04/28 06:20:24;;;;;;;28.52;9.05;;;;;;;;;;4953777;28;20067;-69
2022/04/28 06:23:04;;;;;;;25.13;8.57;;;;;;;;;;4959907;28;20039;-67
2022/04/28 06:25:49;;;;;;;25.48;10.30;;;;;;;;;;4958380;28;20038;-68
2022/04/28 06:28:15;;;;;;;23.45;8.68;;;;;;;;;;4971761;28;20462;-76
2022/04/28 06:30:47;;;;;;;30.30;8.32;;;;;;;;;;4982818;28;20031;-73
2022/04/28 06:33:23;;;;;;;27.77;8.80;;;;;;;;;;4952113;28;20059;-75
2022/04/28 06:36:06;;;;;;;23.57;9.17;;;;;;;;;;4940330;28;20042;-71
2022/04/28 06:38:36;;;;;;;31.90;8.82;;;;;;;;;;4967112;28;20035;-71
2022/04/28 06:41:04;;;;;;;30.00;9.32;;;;;;;;;;4952541;28;20039;-70
2022/04/28 06:43:30;;;;;;;23.25;7.82;;;;;;;;;;4952396;28;20038;-70
2022/04/28 06:46:15;;;;;;;30.95;8.25;;;;;;;;;;4953215;28;20105;-71
2022/04/28 06:48:59;;;;;;;21.55;7.68;;;;;;;;;;4952762;28;20097;-69
2022/04/28 06:52:04;;;;;;;26.45;7.28;;;;;;;;;;4952808;28;20058;-73
2022/04/28 06:54:59;;;;;;;29.02;7.38;;;;;;;;;;4950946;28;20158;-70
2022/04/28 06:57:30;;;;;;;30.17;8.48;;;;;;;;;;4952008;28;20038;-75
2022/04/28 07:00:04;;;;;;;20.25;6.47;;;;;;;;;;4972200;28;20107;-70
2022/04/28 07:02:36;;;;;;;19.65;6.38;;;;;;;;;;4979914;28;20039;-71
2022/04/28 07:05:03;;;;;;;17.85;5.70;;;;;;;;;;4953943;28;20046;-74
2022/04/28 07:07:30;;;;;;;15.23;5.15;;;;;;;;;;4955895;28;20402;-71
2022/04/28 07:09:58;;;;;;;17.30;5.60;;;;;;;;;;4983218;28;20075;-75
2022/04/28 07:12:24;;;;;;;16.65;5.35;;;;;;;;;;4955409;28;20170;-76
2022/04/28 07:15:16;;;;;;;21.00;5.50;;;;;;;;;;4955751;28;20046;-75
2022/04/28 07:17:54;;;;;;;16.58;5.72;;;;;;;;;;4956423;28;20046;-75
2022/04/28 07:20:20;;;;;;;26.25;4.95;;;;;;;;;;4956704;28;20031;-74
2022/04/28 07:22:46;;;;;;;20.38;5.60;;;;;;;;;;4955102;28;20106;-71
2022/04/28 07:25:12;;;;;;;13.40;4.60;;;;;;;;;;4955422;28;20503;-74
2022/04/28 07:27:37;;;;;;;22.77;4.90;;;;;;;;;;4955129;28;20047;-72
2022/04/28 07:30:14;;;;;;;19.17;4.28;;;;;;;;;;4969517;28;20050;-71
2022/04/28 07:32:41;;;;;;;15.43;3.95;;;;;;;;;;4952234;28;20427;-78
2022/04/28 07:35:16;;;;;;;14.77;3.95;;;;;;;;;;4955033;28;20042;-72
2022/04/28 07:38:01;;;;;;;18.38;4.10;;;;;;;;;;4956318;28;20058;-76
2022/04/28 07:40:34;;;;;;;15.00;4.10;;;;;;;;;;4954369;28;20133;-70
2022/04/28 07:43:04;;;;;;;19.38;3.90;;;;;;;;;;4953919;28;20105;-69
2022/04/28 07:45:30;;;;;;;17.33;5.90;;;;;;;;;;4970344;28;20482;-69
2022/04/28 07:47:59;;;;;;;19.05;4.28;;;;;;;;;;4968995;28;20308;-70
2022/04/28 07:50:27;;;;;;;16.13;4.63;;;;;;;;;;4957921;28;20070;-72
2022/04/28 07:53:04;;;;;;;28.00;4.30;;;;;;;;;;4935506;29;20107;-71
2022/04/28 07:55:29;;;;;;;15.27;4.18;;;;;;;;;;4937066;29;20561;-71
2022/04/28 07:57:57;;;;;;;13.18;3.80;;;;;;;;;;4934553;29;20403;-73
2022/04/28 08:00:33;;;;;;;11.38;3.70;;;;;;;;;;4935560;29;20031;-73
2022/04/28 08:03:01;;;;;;;13.93;4.28;;;;;;;;;;4967395;28;20030;-75
2022/04/28 08:05:39;;;;;;;15.63;3.95;;;;;;;;;;4969873;28;20031;-73
2022/04/28 08:08:05;;;;;;;17.25;4.35;;;;;;;;;;4987522;28;20377;-67
2022/04/28 08:10:31;;;;;;;25.60;5.55;;;;;;;;;;4968419;28;20109;-72
2022/04/28 08:12:57;;;;;;;18.10;3.83;;;;;;;;;;4954239;28;20054;-74
2022/04/28 08:15:42;;;;;;;12.15;3.55;;;;;;;;;;4955102;28;20037;-74
2022/04/28 08:18:09;;;;;;;18.58;3.80;;;;;;;;;;4953304;28;20043;-73
2022/04/28 08:20:41;;;;;;;16.08;3.65;;;;;;;;;;4955396;28;20082;-69
2022/04/28 08:23:08;;;;;;;23.25;3.17;;;;;;;;;;4971246;28;20038;-71
2022/04/28 08:25:34;;;;;;;14.30;3.80;;;;;;;;;;4970985;28;20377;-71
2022/04/28 08:28:01;;;;;;;21.45;3.67;;;;;;;;;;4954139;28;20042;-75
2022/04/28 08:30:28;;;;;;;13.93;3.13;;;;;;;;;;4971152;28;20027;-74
2022/04/28 08:32:55;;;;;;;18.75;3.45;;;;;;;;;;4954198;28;20055;-69
2022/04/28 08:35:22;;;;;;;19.55;3.20;;;;;;;;;;4954720;28;20471;-71
2022/04/28 08:37:48;;;;;;;17.65;3.85;;;;;;;;;;4954790;28;20078;-70
2022/04/28 08:40:15;;;;;;;19.73;3.53;;;;;;;;;;4954226;28;20126;-73
2022/04/28 08:42:42;;;;;;;30.42;3.38;;;;;;;;;;4953432;28;20043;-72
2022/04/28 08:45:27;;;;;;;15.10;3.67;;;;;;;;;;4953443;28;20058;-71
2022/04/28 08:48:12;;;;;;;15.60;3.85;;;;;;;;;;4945422;29;20533;-74
2022/04/28 08:51:01;;;;;;;21.08;3.50;;;;;;;;;;4955047;28;20558;-70
2022/04/28 08:53:29;;;;;;;20.20;4.38;;;;;;;;;;4933411;28;20054;-73
2022/04/28 08:55:57;;;;;;;20.67;4.65;;;;;;;;;;4934699;29;20508;-74
2022/04/28 08:58:24;;;;;;;15.38;3.35;;;;;;;;;;4933888;29;20054;-71
2022/04/28 09:00:53;;;;;;;16.27;3.50;;;;;;;;;;4933485;29;20071;-70
2022/04/28 09:03:24;;;;;;;15.63;3.22;;;;;;;;;;4931368;29;20130;-72
2022/04/28 09:06:29;;;;;;;21.98;4.10;;;;;;;;;;4943198;29;20087;-69
2022/04/28 09:09:27;;;;;;;17.52;3.60;;;;;;;;;;4936180;29;20150;-72
2022/04/28 09:12:04;;;;;;;21.02;3.88;;;;;;;;;;4948222;29;20067;-68
2022/04/28 09:14:51;;;;;;;18.88;3.70;;;;;;;;;;4934755;29;20047;-71
2022/04/28 09:17:21;;;;;;;16.55;3.33;;;;;;;;;;4933650;29;20028;-74
2022/04/28 09:19:59;;;;;;;21.25;4.10;;;;;;;;;;4934791;29;20040;-72
2022/04/28 09:22:33;;;;;;;19.85;3.22;;;;;;;;;;4930665;29;20547;-74
2022/04/28 09:25:00;;;;;;;16.75;3.38;;;;;;;;;;4945673;29;20043;-75
2022/04/28 09:27:28;;;;;;;11.70;3.45;;;;;;;;;;4949131;28;20043;-75
2022/04/28 09:29:56;;;;;;;28.02;4.05;;;;;;;;;;4949916;28;20084;-75
2022/04/28 09:32:24;;;;;;;19.30;3.40;;;;;;;;;;4934246;29;20032;-74
2022/04/28 09:35:11;;;;;;;21.02;3.88;;;;;;;;;;4935597;29;20058;-75
2022/04/28 09:37:47;;;;;;;17.38;3.35;;;;;;;;;;4934195;29;20040;-71
2022/04/28 09:43:01;;;;;;;14.23;3.80;;;;;;;;;;4934401;29;20063;-73
2022/04/28 09:45:33;;;;;;;18.45;3.55;;;;;;;;;;4934095;29;20063;-70
2022/04/28 09:48:03;;;;;;;16.02;3.53;;;;;;;;;;4934120;29;20083;-69
2022/04/28 09:50:36;;;;;;;15.13;3.45;;;;;;;;;;4934173;29;20031;-72
2022/04/28 09:53:14;;;;;;;11.25;3.15;;;;;;;;;;4933919;29;20062;-71
2022/04/28 09:56:05;;;;;;;18.63;2.78;;;;;;;;;;4935012;29;20043;-77
2022/04/28 09:58:51;;;;;;;12.77;3.58;;;;;;;;;;4935167;29;20067;-77
2022/04/28 10:01:18;;;;;;;16.50;2.67;;;;;;;;;;4933141;29;20049;-76
2022/04/28 10:03:45;;;;;;;15.25;3.95;;;;;;;;;;4948437;28;20102;-74
2022/04/28 10:06:19;;;;;;;19.00;3.40;;;;;;;;;;4932980;29;20483;-70
2022/04/28 10:09:11;;;;;;;22.63;3.35;;;;;;;;;;4947063;29;20036;-75
2022/04/28 10:11:42;;;;;;;16.15;3.15;;;;;;;;;;4933386;29;20035;-72
2022/04/28 10:14:13;;;;;;;19.42;3.55;;;;;;;;;;4933658;29;20039;-73
2022/04/28 10:16:44;;;;;;;22.75;3.75;;;;;;;;;;4933625;29;20028;-77
2022/04/28 10:19:16;;;;;;;14.18;3.42;;;;;;;;;;4933494;29;20086;-74
2022/04/28 10:21:55;;;;;;;26.25;3.42;;;;;;;;;;4933504;29;20050;-71
2022/04/28 10:33:10;;;;;;;17.33;3.60;;;;;;;;;;4933658;29;20040;-75
2022/04/28 10:35:51;;;;;;;26.20;3.55;;;;;;;;;;4948086;28;20036;-71
2022/04/28 10:38:31;;;;;;;17.95;3.63;;;;;;;;;;4915745;29;20530;-71
2022/04/28 10:41:00;;;;;;;19.98;3.55;;;;;;;;;;4934468;29;20036;-75
2022/04/28 10:43:40;;;;;;;17.45;3.65;;;;;;;;;;4934419;29;20024;-75
2022/04/28 10:46:08;;;;;;;23.20;3.78;;;;;;;;;;4932292;29;21075;-77
2022/04/28 10:48:45;;;;;;;17.30;3.40;;;;;;;;;;4933299;29;20024;-72
2022/04/28 10:51:17;;;;;;;18.58;3.13;;;;;;;;;;4934080;29;20119;-71
2022/04/28 10:54:06;;;;;;;16.60;3.65;;;;;;;;;;4927858;29;20047;-70
2022/04/28 10:57:08;;;;;;;23.00;3.35;;;;;;;;;;4928402;29;20042;-69
2022/04/28 10:59:35;;;;;;;28.02;3.70;;;;;;;;;;4926978;29;20105;-75
2022/04/28 11:02:10;;;;;;;27.20;4.18;;;;;;;;;;4925191;28;20032;-70
2022/04/28 11:04:37;;;;;;;23.38;3.53;;;;;;;;;;4933330;29;20032;-70
2022/04/28 11:07:15;;;;;;;18.52;3.25;;;;;;;;;;4931300;29;20118;-74
2022/04/28 11:09:43;;;;;;;17.63;3.15;;;;;;;;;;4933286;29;20038;-76
2022/04/28 11:12:18;;;;;;;22.77;3.78;;;;;;;;;;4932863;29;20035;-75
2022/04/28 11:14:52;;;;;;;21.02;3.88;;;;;;;;;;4932108;29;20041;-76
2022/04/28 11:17:22;;;;;;;22.85;3.78;;;;;;;;;;4933884;29;20502;-74
2022/04/28 11:19:50;;;;;;;28.90;4.00;;;;;;;;;;4933528;29;20031;-72
2022/04/28 11:22:16;;;;;;;22.33;3.88;;;;;;;;;;4931286;29;20042;-76
2022/04/28 11:24:47;;;;;;;28.60;3.47;;;;;;;;;;4933016;29;20028;-75
2022/04/28 11:27:29;;;;;;;26.88;3.38;;;;;;;;;;4932742;29;20067;-76
2022/04/28 11:30:03;;;;;;;19.17;3.28;;;;;;;;;;4933183;29;20516;-77
2022/04/28 11:32:29;;;;;;;21.85;3.67;;;;;;;;;;4929555;29;20039;-75
2022/04/28 11:34:59;;;;;;;16.52;2.90;;;;;;;;;;4931597;29;20043;-75
2022/04/28 11:37:26;;;;;;;20.70;3.75;;;;;;;;;;4934447;29;20043;-77
2022/04/28 11:39:57;;;;;;;25.73;3.45;;;;;;;;;;4934799;29;20035;-72
2022/04/28 11:42:26;;;;;;;25.98;4.30;;;;;;;;;;4934946;29;20043;-72
2022/04/28 11:44:56;;;;;;;21.33;3.75;;;;;;;;;;4935784;29;20028;-74
2022/04/28 11:47:27;;;;;;;30.17;3.80;;;;;;;;;;4936213;29;20032;-76
2022/04/28 11:49:57;;;;;;;22.58;4.00;;;;;;;;;;4935524;29;20032;-76
2022/04/28 11:52:27;;;;;;;19.80;3.90;;;;;;;;;;4934888;29;20055;-73
2022/04/28 11:54:58;;;;;;;24.30;3.65;;;;;;;;;;4936075;29;20699;-73
2022/04/28 11:57:24;;;;;;;19.58;3.90;;;;;;;;;;4936524;29;20113;-74
2022/04/28 11:59:51;;;;;;;21.52;3.45;;;;;;;;;;4936207;29;20043;-71
2022/04/28 12:02:24;;;;;;;16.65;4.15;;;;;;;;;;4935570;29;20067;-71
2022/04/28 12:04:50;;;;;;;22.08;4.20;;;;;;;;;;4935426;29;20114;-74
2022/04/28 12:07:20;;;;;;;18.67;4.28;;;;;;;;;;4936208;29;20116;-69
2022/04/28 12:15:16;;;;;;;23.75;5.63;;;;;;;;;;4932084;29;20935;-73
2022/04/28 12:21:01;;;;;;;22.73;3.47;;;;;;;;;;4935398;29;20460;-74
2022/04/28 12:23:40;;;;;;;18.25;4.05;;;;;;;;;;4935296;28;20035;-72
2022/04/28 12:26:07;;;;;;;21.35;3.53;;;;;;;;;;4934718;29;20036;-73
2022/04/28 12:28:38;;;;;;;24.77;3.25;;;;;;;;;;4935496;29;20506;-74
2022/04/28 12:31:05;;;;;;;18.73;4.10;;;;;;;;;;4935186;29;20043;-73
2022/04/28 12:33:35;;;;;;;19.92;3.50;;;;;;;;;;4935444;29;20462;-69
2022/04/28 12:36:05;;;;;;;23.13;3.38;;;;;;;;;;4936120;29;20506;-76
2022/04/28 12:38:35;;;;;;;22.98;3.58;;;;;;;;;;4934392;29;20032;-72
2022/04/28 12:41:22;;;;;;;19.75;3.92;;;;;;;;;;4935325;29;20123;-71
2022/04/28 12:43:56;;;;;;;16.83;2.97;;;;;;;;;;4935864;29;20466;-76
2022/04/28 12:46:34;;;;;;;21.00;3.63;;;;;;;;;;4936031;29;20032;-74
2022/04/28 12:49:03;;;;;;;16.20;3.20;;;;;;;;;;4935159;29;20035;-77
2022/04/28 12:51:31;;;;;;;20.35;3.17;;;;;;;;;;4935525;29;20075;-73
2022/04/28 12:54:33;;;;;;;19.13;3.30;;;;;;;;;;4934771;29;20557;-72
2022/04/28 12:57:02;;;;;;;14.27;3.20;;;;;;;;;;4934568;29;20055;-73
2022/04/28 12:59:35;;;;;;;17.02;3.47;;;;;;;;;;4934270;29;20540;-72
2022/04/28 13:02:01;;;;;;;21.52;3.95;;;;;;;;;;4938181;29;20089;-73
2022/04/28 13:04:27;;;;;;;18.67;2.90;;;;;;;;;;4935151;29;20023;-74
2022/04/28 13:06:54;;;;;;;13.55;3.22;;;;;;;;;;4935567;29;20112;-74
2022/04/28 13:09:22;;;;;;;14.68;3.13;;;;;;;;;;4934527;29;20024;-71
2022/04/28 13:11:50;;;;;;;18.48;3.10;;;;;;;;;;4935405;29;20046;-73
2022/04/28 13:14:18;;;;;;;20.30;3.20;;;;;;;;;;4935368;29;20070;-74
2022/04/28 13:16:46;;;;;;;13.63;3.10;;;;;;;;;;4932925;29;20043;-70
2022/04/28 13:19:12;;;;;;;12.90;2.97;;;;;;;;;;4934407;29;20024;-72
2022/04/28 13:21:39;;;;;;;19.70;2.80;;;;;;;;;;4930863;29;20035;-75
2022/04/28 13:24:06;;;;;;;19.65;3.63;;;;;;;;;;4947744;28;20023;-71
2022/04/28 13:26:32;;;;;;;12.45;2.85;;;;;;;;;;4933197;29;20071;-71
2022/04/28 13:28:58;;;;;;;19.27;3.08;;;;;;;;;;4933345;29;20091;-72
2022/04/28 13:31:25;;;;;;;14.63;2.92;;;;;;;;;;4933764;29;20044;-77
2022/04/28 13:33:52;;;;;;;13.63;2.63;;;;;;;;;;4937993;29;20035;-75
2022/04/28 13:36:18;;;;;;;11.90;2.80;;;;;;;;;;4944808;28;20047;-70
2022/04/28 13:38:45;;;;;;;16.80;3.05;;;;;;;;;;4952827;28;20023;-75
2022/04/28 13:41:12;;;;;;;12.23;2.78;;;;;;;;;;4946303;28;20040;-75
2022/04/28 13:43:38;;;;;;;12.70;2.65;;;;;;;;;;4943398;29;20728;-77
2022/04/28 13:46:08;;;;;;;19.60;3.25;;;;;;;;;;4931304;29;20102;-73
2022/04/28 13:48:35;;;;;;;20.90;3.17;;;;;;;;;;4933094;29;21058;-75
2022/04/28 13:51:01;;;;;;;14.02;2.40;;;;;;;;;;4931542;29;20182;-74
2022/04/28 13:53:30;;;;;;;18.23;2.67;;;;;;;;;;4932672;29;20040;-72
2022/04/28 13:55:58;;;;;;;14.48;3.10;;;;;;;;;;4933454;29;20027;-74
2022/04/28 13:58:26;;;;;;;13.88;3.08;;;;;;;;;;4933120;29;20091;-72
2022/04/28 14:00:53;;;;;;;13.80;2.75;;;;;;;;;;4928295;29;20040;-74
2022/04/28 14:03:25;;;;;;;13.88;3.55;;;;;;;;;;4933294;29;20062;-75
2022/04/28 14:05:53;;;;;;;18.17;2.35;;;;;;;;;;4933161;29;20035;-73
2022/04/28 14:08:19;;;;;;;20.58;3.15;;;;;;;;;;4932465;29;20114;-72
2022/04/28 14:10:46;;;;;;;16.98;3.05;;;;;;;;;;4934110;29;20479;-72
2022/04/28 14:13:12;;;;;;;12.93;2.60;;;;;;;;;;4931815;29;20036;-74
2022/04/28 14:15:39;;;;;;;15.60;2.90;;;;;;;;;;4927789;29;20086;-71
2022/04/28 14:18:06;;;;;;;12.82;2.60;;;;;;;;;;4923159;29;20380;-71
2022/04/28 14:20:32;;;;;;;17.58;2.92;;;;;;;;;;4932032;29;20035;-71
2022/04/28 14:22:58;;;;;;;18.38;2.80;;;;;;;;;;4930437;29;20106;-70
2022/04/28 14:25:24;;;;;;;13.98;2.22;;;;;;;;;;4934544;29;20063;-70
2022/04/28 14:27:50;;;;;;;19.13;3.25;;;;;;;;;;4934487;29;20119;-70
2022/04/28 14:30:16;;;;;;;11.35;2.35;;;;;;;;;;4932813;29;20035;-74
2022/04/28 14:32:42;;;;;;;13.98;3.15;;;;;;;;;;4933236;29;20095;-76
2022/04/28 14:35:09;;;;;;;10.40;2.53;;;;;;;;;;4934386;29;20559;-72
2022/04/28 14:37:38;;;;;;;18.05;2.80;;;;;;;;;;4933938;29;20023;-73
2022/04/28 14:40:06;;;;;;;18.17;2.88;;;;;;;;;;4934642;29;20042;-74
2022/04/28 14:42:31;;;;;;;24.38;3.15;;;;;;;;;;4934487;29;20068;-74
2022/04/28 14:44:57;;;;;;;19.67;3.75;;;;;;;;;;4933813;29;20059;-73
2022/04/28 14:47:23;;;;;;;14.07;2.70;;;;;;;;;;4934398;29;20103;-71
2022/04/28 14:52:34;;;;;;;23.30;2.60;;;;;;;;;;4933542;29;20564;-73
2022/04/28 14:55:03;;;;;;;14.00;3.28;;;;;;;;;;4933699;29;20213;-73
2022/04/28 14:57:34;;;;;;;22.13;3.58;;;;;;;;;;4934266;29;20030;-72
2022/04/28 15:00:01;;;;;;;16.80;2.47;;;;;;;;;;4933404;29;20046;-73
2022/04/28 15:02:28;;;;;;;13.88;3.13;;;;;;;;;;4932779;29;20040;-74
2022/04/28 15:04:55;;;;;;;15.68;3.17;;;;;;;;;;4933412;29;20051;-69
2022/04/28 15:07:21;;;;;;;13.65;2.95;;;;;;;;;;4933745;29;20079;-78
2022/04/28 15:09:47;;;;;;;14.23;2.92;;;;;;;;;;4933952;29;20032;-74
2022/04/28 15:12:15;;;;;;;15.70;3.05;;;;;;;;;;4935100;29;20031;-70
2022/04/28 15:14:41;;;;;;;12.48;2.95;;;;;;;;;;4936614;29;20098;-71
2022/04/28 15:17:09;;;;;;;19.85;3.50;;;;;;;;;;4937291;28;20031;-75
2022/04/28 15:19:35;;;;;;;12.77;2.50;;;;;;;;;;4947225;29;20107;-69
2022/04/28 15:22:01;;;;;;;20.42;3.22;;;;;;;;;;4955886;28;20430;-71
2022/04/28 15:24:27;;;;;;;14.07;3.17;;;;;;;;;;4956240;28;20147;-72
2022/04/28 15:26:53;;;;;;;14.27;2.85;;;;;;;;;;4956384;28;20112;-72
2022/04/28 15:29:19;;;;;;;12.00;2.63;;;;;;;;;;4948908;28;20027;-71
2022/04/28 15:31:45;;;;;;;11.60;2.65;;;;;;;;;;4937114;29;20063;-72
2022/04/28 15:34:12;;;;;;;13.70;2.58;;;;;;;;;;4936975;29;20044;-72